sensor_id;sensor_type;location;lat;lon;timestamp;pressure;altitude;pressure_sealevel;temperature
74485;BMP280;62942;52.462;10.846;2023-08-06T00:00:56;100020;;;
74485;BMP280;62942;52.462;10.846;2023-08-06T00:02:06;100030;;;
74485;BMP280;62942;52.462;10.846;2023-08-06T00:03:06;100030;;;
74485;BMP280;62942;52.462;10.846;2023-08-06T00:04:16;100030;;;
74485;BMP280;62942;52.462;10.846;2023-08-06T00:05:16;100030;;;
74485;BMP280;62942;52.462;10.846;2023-08-06T00:06:26;100030;;;
74485;BMP280;62942;52.462;10.846;2023-08-06T00:07:26;100030;;;
74485;BMP280;62942;52.462;10.846;2023-08-06T00:08:36;100030;;;
74485;BMP280;62942;52.462;10.846;2023-08-06T00:09:36;100020;;;
74485;BMP280;62942;52.462;10.846;2023-08-06T00:10:47;100010;;;
74485;BMP280;62942;52.462;10.846;2023-08-06T00:11:56;100010;;;
74485;BMP280;62942;52.462;10.846;2023-08-06T00:13:06;100010;;;
74485;BMP280;62942;52.462;10.846;2023-08-06T00:14:16;100010;;;
74485;BMP280;62942;52.462;10.846;2023-08-06T00:15:26;100010;;;
74485;BMP280;62942;52.462;10.846;2023-08-06T00:16:36;100010;;;
74485;BMP280;62942;52.462;10.846;2023-08-06T00:17:36;100010;;;
74485;BMP280;62942;52.462;10.846;2023-08-06T00:18:46;100010;;;
74485;BMP280;62942;52.462;10.846;2023-08-06T00:19:46;100010;;;
74485;BMP280;62942;52.462;10.846;2023-08-06T00:20:46;100010;;;
74485;BMP280;62942;52.462;10.846;2023-08-06T00:21:46;100010;;;
74485;BMP280;62942;52.462;10.846;2023-08-06T00:22:56;100010;;;
74485;BMP280;62942;52.462;10.846;2023-08-06T00:23:56;100000;;;
74485;BMP280;62942;52.462;10.846;2023-08-06T00:25:06;100000;;;
74485;BMP280;62942;52.462;10.846;2023-08-06T00:26:16;100000;;;
74485;BMP280;62942;52.462;10.846;2023-08-06T00:27:16;100000;;;
74485;BMP280;62942;52.462;10.846;2023-08-06T00:28:26;100000;;;
74485;BMP280;62942;52.462;10.846;2023-08-06T00:29:26;99990;;;
74485;BMP280;62942;52.462;10.846;2023-08-06T00:30:36;99990;;;
74485;BMP280;62942;52.462;10.846;2023-08-06T00:31:36;99990;;;
74485;BMP280;62942;52.462;10.846;2023-08-06T00:32:46;99980;;;
74485;BMP280;62942;52.462;10.846;2023-08-06T00:33:56;99980;;;
74485;BMP280;62942;52.462;10.846;2023-08-06T00:34:56;99970;;;
74485;BMP280;62942;52.462;10.846;2023-08-06T00:36:06;99970;;;
74485;BMP280;62942;52.462;10.846;2023-08-06T00:37:06;99970;;;
74485;BMP280;62942;52.462;10.846;2023-08-06T00:38:16;99970;;;
74485;BMP280;62942;52.462;10.846;2023-08-06T00:39:16;99970;;;
74485;BMP280;62942;52.462;10.846;2023-08-06T00:40:16;99970;;;
74485;BMP280;62942;52.462;10.846;2023-08-06T00:41:26;99960;;;
74485;BMP280;62942;52.462;10.846;2023-08-06T00:42:26;99970;;;
74485;BMP280;62942;52.462;10.846;2023-08-06T00:43:36;99970;;;
74485;BMP280;62942;52.462;10.846;2023-08-06T00:44:46;99960;;;
74485;BMP280;62942;52.462;10.846;2023-08-06T00:45:46;99970;;;
74485;BMP280;62942;52.462;10.846;2023-08-06T00:46:56;99960;;;
74485;BMP280;62942;52.462;10.846;2023-08-06T00:47:56;99960;;;
74485;BMP280;62942;52.462;10.846;2023-08-06T00:49:06;99960;;;
74485;BMP280;62942;52.462;10.846;2023-08-06T00:50:16;99960;;;
74485;BMP280;62942;52.462;10.846;2023-08-06T00:51:16;99960;;;
74485;BMP280;62942;52.462;10.846;2023-08-06T00:52:26;99950;;;
74485;BMP280;62942;52.462;10.846;2023-08-06T00:53:36;99950;;;
74485;BMP280;62942;52.462;10.846;2023-08-06T00:54:36;99950;;;
74485;BMP280;62942;52.462;10.846;2023-08-06T00:55:36;99950;;;
74485;BMP280;62942;52.462;10.846;2023-08-06T00:56:36;99950;;;
74485;BMP280;62942;52.462;10.846;2023-08-06T00:57:46;99950;;;
74485;BMP280;62942;52.462;10.846;2023-08-06T00:58:56;99950;;;
74485;BMP280;62942;52.462;10.846;2023-08-06T01:00:06;99950;;;
74485;BMP280;62942;52.462;10.846;2023-08-06T01:01:16;99950;;;
74485;BMP280;62942;52.462;10.846;2023-08-06T01:02:16;99950;;;
74485;BMP280;62942;52.462;10.846;2023-08-06T01:03:26;99950;;;
74485;BMP280;62942;52.462;10.846;2023-08-06T01:04:36;99950;;;
74485;BMP280;62942;52.462;10.846;2023-08-06T01:05:36;99950;;;
74485;BMP280;62942;52.462;10.846;2023-08-06T01:06:39;99940;;;
74485;BMP280;62942;52.462;10.846;2023-08-06T01:07:48;99950;;;
74485;BMP280;62942;52.462;10.846;2023-08-06T01:08:47;99940;;;
74485;BMP280;62942;52.462;10.846;2023-08-06T01:09:49;99940;;;
74485;BMP280;62942;52.462;10.846;2023-08-06T01:11:00;99940;;;
74485;BMP280;62942;52.462;10.846;2023-08-06T01:11:57;99940;;;
74485;BMP280;62942;52.462;10.846;2023-08-06T01:12:57;99930;;;
74485;BMP280;62942;52.462;10.846;2023-08-06T01:14:07;99930;;;
74485;BMP280;62942;52.462;10.846;2023-08-06T01:15:07;99930;;;
74485;BMP280;62942;52.462;10.846;2023-08-06T01:16:16;99930;;;
74485;BMP280;62942;52.462;10.846;2023-08-06T01:17:26;99920;;;
74485;BMP280;62942;52.462;10.846;2023-08-06T01:18:26;99930;;;
74485;BMP280;62942;52.462;10.846;2023-08-06T01:19:26;99920;;;
74485;BMP280;62942;52.462;10.846;2023-08-06T01:20:36;99920;;;
74485;BMP280;62942;52.462;10.846;2023-08-06T01:21:46;99920;;;
74485;BMP280;62942;52.462;10.846;2023-08-06T01:22:46;99910;;;
74485;BMP280;62942;52.462;10.846;2023-08-06T01:23:46;99910;;;
74485;BMP280;62942;52.462;10.846;2023-08-06T01:24:46;99910;;;
74485;BMP280;62942;52.462;10.846;2023-08-06T01:25:58;99910;;;
74485;BMP280;62942;52.462;10.846;2023-08-06T01:26:59;99910;;;
74485;BMP280;62942;52.462;10.846;2023-08-06T01:27:56;99910;;;
74485;BMP280;62942;52.462;10.846;2023-08-06T01:29:06;99910;;;
74485;BMP280;62942;52.462;10.846;2023-08-06T01:30:06;99910;;;
74485;BMP280;62942;52.462;10.846;2023-08-06T01:31:18;99910;;;
74485;BMP280;62942;52.462;10.846;2023-08-06T01:32:26;99900;;;
74485;BMP280;62942;52.462;10.846;2023-08-06T01:33:36;99900;;;
74485;BMP280;62942;52.462;10.846;2023-08-06T01:34:46;99900;;;
74485;BMP280;62942;52.462;10.846;2023-08-06T01:35:56;99900;;;
74485;BMP280;62942;52.462;10.846;2023-08-06T01:37:05;99900;;;
74485;BMP280;62942;52.462;10.846;2023-08-06T01:38:06;99900;;;
74485;BMP280;62942;52.462;10.846;2023-08-06T01:39:15;99900;;;
74485;BMP280;62942;52.462;10.846;2023-08-06T01:40:26;99900;;;
74485;BMP280;62942;52.462;10.846;2023-08-06T01:41:35;99890;;;
74485;BMP280;62942;52.462;10.846;2023-08-06T01:42:35;99890;;;
74485;BMP280;62942;52.462;10.846;2023-08-06T01:43:35;99890;;;
74485;BMP280;62942;52.462;10.846;2023-08-06T01:44:45;99890;;;
74485;BMP280;62942;52.462;10.846;2023-08-06T01:45:45;99870;;;
74485;BMP280;62942;52.462;10.846;2023-08-06T01:46:55;99880;;;
74485;BMP280;62942;52.462;10.846;2023-08-06T01:48:05;99880;;;
74485;BMP280;62942;52.462;10.846;2023-08-06T01:49:15;99880;;;
74485;BMP280;62942;52.462;10.846;2023-08-06T01:50:26;99880;;;
74485;BMP280;62942;52.462;10.846;2023-08-06T01:51:36;99870;;;
74485;BMP280;62942;52.462;10.846;2023-08-06T01:52:45;99870;;;
74485;BMP280;62942;52.462;10.846;2023-08-06T01:53:45;99860;;;
74485;BMP280;62942;52.462;10.846;2023-08-06T01:54:45;99860;;;
74485;BMP280;62942;52.462;10.846;2023-08-06T01:55:55;99860;;;
74485;BMP280;62942;52.462;10.846;2023-08-06T01:56:55;99860;;;
74485;BMP280;62942;52.462;10.846;2023-08-06T01:57:55;99860;;;
74485;BMP280;62942;52.462;10.846;2023-08-06T01:58:55;99860;;;
74485;BMP280;62942;52.462;10.846;2023-08-06T02:00:06;99860;;;
74485;BMP280;62942;52.462;10.846;2023-08-06T02:01:15;99860;;;
74485;BMP280;62942;52.462;10.846;2023-08-06T02:02:15;99860;;;
74485;BMP280;62942;52.462;10.846;2023-08-06T02:03:26;99860;;;
74485;BMP280;62942;52.462;10.846;2023-08-06T02:04:36;99860;;;
74485;BMP280;62942;52.462;10.846;2023-08-06T02:05:45;99850;;;
74485;BMP280;62942;52.462;10.846;2023-08-06T02:06:46;99860;;;
74485;BMP280;62942;52.462;10.846;2023-08-06T02:07:56;99860;;;
74485;BMP280;62942;52.462;10.846;2023-08-06T02:09:05;99860;;;
74485;BMP280;62942;52.462;10.846;2023-08-06T02:10:15;99860;;;
74485;BMP280;62942;52.462;10.846;2023-08-06T02:11:15;99860;;;
74485;BMP280;62942;52.462;10.846;2023-08-06T02:12:26;99860;;;
74485;BMP280;62942;52.462;10.846;2023-08-06T02:13:26;99850;;;
74485;BMP280;62942;52.462;10.846;2023-08-06T02:14:35;99850;;;
74485;BMP280;62942;52.462;10.846;2023-08-06T02:15:35;99850;;;
74485;BMP280;62942;52.462;10.846;2023-08-06T02:16:45;99860;;;
74485;BMP280;62942;52.462;10.846;2023-08-06T02:17:56;99850;;;
74485;BMP280;62942;52.462;10.846;2023-08-06T02:19:05;99860;;;
74485;BMP280;62942;52.462;10.846;2023-08-06T02:20:16;99860;;;
74485;BMP280;62942;52.462;10.846;2023-08-06T02:21:15;99860;;;
74485;BMP280;62942;52.462;10.846;2023-08-06T02:22:16;99860;;;
74485;BMP280;62942;52.462;10.846;2023-08-06T02:23:26;99860;;;
74485;BMP280;62942;52.462;10.846;2023-08-06T02:24:25;99860;;;
74485;BMP280;62942;52.462;10.846;2023-08-06T02:25:35;99860;;;
74485;BMP280;62942;52.462;10.846;2023-08-06T02:26:45;99860;;;
74485;BMP280;62942;52.462;10.846;2023-08-06T02:27:45;99860;;;
74485;BMP280;62942;52.462;10.846;2023-08-06T02:28:45;99860;;;
74485;BMP280;62942;52.462;10.846;2023-08-06T02:29:55;99860;;;
74485;BMP280;62942;52.462;10.846;2023-08-06T02:31:05;99860;;;
74485;BMP280;62942;52.462;10.846;2023-08-06T02:32:15;99860;;;
74485;BMP280;62942;52.462;10.846;2023-08-06T02:33:15;99860;;;
74485;BMP280;62942;52.462;10.846;2023-08-06T02:34:25;99860;;;
74485;BMP280;62942;52.462;10.846;2023-08-06T02:35:25;99850;;;
74485;BMP280;62942;52.462;10.846;2023-08-06T02:36:35;99850;;;
74485;BMP280;62942;52.462;10.846;2023-08-06T02:37:36;99840;;;
74485;BMP280;62942;52.462;10.846;2023-08-06T02:38:45;99850;;;
74485;BMP280;62942;52.462;10.846;2023-08-06T02:39:55;99850;;;
74485;BMP280;62942;52.462;10.846;2023-08-06T02:41:05;99840;;;
74485;BMP280;62942;52.462;10.846;2023-08-06T02:42:06;99840;;;
74485;BMP280;62942;52.462;10.846;2023-08-06T02:43:15;99840;;;
74485;BMP280;62942;52.462;10.846;2023-08-06T02:44:15;99840;;;
74485;BMP280;62942;52.462;10.846;2023-08-06T02:45:25;99830;;;
74485;BMP280;62942;52.462;10.846;2023-08-06T02:46:26;99830;;;
74485;BMP280;62942;52.462;10.846;2023-08-06T02:47:35;99830;;;
74485;BMP280;62942;52.462;10.846;2023-08-06T02:48:45;99830;;;
74485;BMP280;62942;52.462;10.846;2023-08-06T02:49:55;99820;;;
74485;BMP280;62942;52.462;10.846;2023-08-06T02:51:05;99830;;;
74485;BMP280;62942;52.462;10.846;2023-08-06T02:52:06;99830;;;
74485;BMP280;62942;52.462;10.846;2023-08-06T02:53:15;99820;;;
74485;BMP280;62942;52.462;10.846;2023-08-06T02:54:15;99820;;;
74485;BMP280;62942;52.462;10.846;2023-08-06T02:55:25;99820;;;
74485;BMP280;62942;52.462;10.846;2023-08-06T02:56:35;99820;;;
74485;BMP280;62942;52.462;10.846;2023-08-06T02:57:35;99820;;;
74485;BMP280;62942;52.462;10.846;2023-08-06T02:58:45;99820;;;
74485;BMP280;62942;52.462;10.846;2023-08-06T02:59:55;99820;;;
74485;BMP280;62942;52.462;10.846;2023-08-06T03:00:59;99810;;;
74485;BMP280;62942;52.462;10.846;2023-08-06T03:02:05;99820;;;
74485;BMP280;62942;52.462;10.846;2023-08-06T03:03:15;99820;;;
74485;BMP280;62942;52.462;10.846;2023-08-06T03:04:15;99820;;;
74485;BMP280;62942;52.462;10.846;2023-08-06T03:05:15;99820;;;
74485;BMP280;62942;52.462;10.846;2023-08-06T03:06:25;99810;;;
74485;BMP280;62942;52.462;10.846;2023-08-06T03:07:25;99810;;;
74485;BMP280;62942;52.462;10.846;2023-08-06T03:08:35;99820;;;
74485;BMP280;62942;52.462;10.846;2023-08-06T03:09:45;99830;;;
74485;BMP280;62942;52.462;10.846;2023-08-06T03:10:55;99830;;;
74485;BMP280;62942;52.462;10.846;2023-08-06T03:11:55;99830;;;
74485;BMP280;62942;52.462;10.846;2023-08-06T03:12:55;99830;;;
74485;BMP280;62942;52.462;10.846;2023-08-06T03:14:05;99830;;;
74485;BMP280;62942;52.462;10.846;2023-08-06T03:15:15;99820;;;
74485;BMP280;62942;52.462;10.846;2023-08-06T03:16:25;99820;;;
74485;BMP280;62942;52.462;10.846;2023-08-06T03:17:25;99820;;;
74485;BMP280;62942;52.462;10.846;2023-08-06T03:18:35;99820;;;
74485;BMP280;62942;52.462;10.846;2023-08-06T03:19:45;99820;;;
74485;BMP280;62942;52.462;10.846;2023-08-06T03:20:45;99820;;;
74485;BMP280;62942;52.462;10.846;2023-08-06T03:21:55;99820;;;
74485;BMP280;62942;52.462;10.846;2023-08-06T03:22:55;99820;;;
74485;BMP280;62942;52.462;10.846;2023-08-06T03:24:05;99820;;;
74485;BMP280;62942;52.462;10.846;2023-08-06T03:25:15;99820;;;
74485;BMP280;62942;52.462;10.846;2023-08-06T03:26:25;99810;;;
74485;BMP280;62942;52.462;10.846;2023-08-06T03:27:25;99810;;;
74485;BMP280;62942;52.462;10.846;2023-08-06T03:28:35;99810;;;
74485;BMP280;62942;52.462;10.846;2023-08-06T03:29:48;99810;;;
74485;BMP280;62942;52.462;10.846;2023-08-06T03:30:59;99810;;;
74485;BMP280;62942;52.462;10.846;2023-08-06T03:32:06;99800;;;
74485;BMP280;62942;52.462;10.846;2023-08-06T03:33:15;99800;;;
74485;BMP280;62942;52.462;10.846;2023-08-06T03:34:15;99800;;;
74485;BMP280;62942;52.462;10.846;2023-08-06T03:35:15;99800;;;
74485;BMP280;62942;52.462;10.846;2023-08-06T03:36:25;99800;;;
74485;BMP280;62942;52.462;10.846;2023-08-06T03:37:35;99800;;;
74485;BMP280;62942;52.462;10.846;2023-08-06T03:38:45;99800;;;
74485;BMP280;62942;52.462;10.846;2023-08-06T03:39:55;99800;;;
74485;BMP280;62942;52.462;10.846;2023-08-06T03:41:05;99800;;;
74485;BMP280;62942;52.462;10.846;2023-08-06T03:42:05;99800;;;
74485;BMP280;62942;52.462;10.846;2023-08-06T03:43:05;99800;;;
74485;BMP280;62942;52.462;10.846;2023-08-06T03:44:15;99800;;;
74485;BMP280;62942;52.462;10.846;2023-08-06T03:45:25;99800;;;
74485;BMP280;62942;52.462;10.846;2023-08-06T03:46:35;99800;;;
74485;BMP280;62942;52.462;10.846;2023-08-06T03:47:35;99790;;;
74485;BMP280;62942;52.462;10.846;2023-08-06T03:48:45;99800;;;
74485;BMP280;62942;52.462;10.846;2023-08-06T03:49:45;99800;;;
74485;BMP280;62942;52.462;10.846;2023-08-06T03:50:55;99810;;;
74485;BMP280;62942;52.462;10.846;2023-08-06T03:51:55;99810;;;
74485;BMP280;62942;52.462;10.846;2023-08-06T03:53:05;99810;;;
74485;BMP280;62942;52.462;10.846;2023-08-06T03:54:15;99810;;;
74485;BMP280;62942;52.462;10.846;2023-08-06T03:55:25;99800;;;
74485;BMP280;62942;52.462;10.846;2023-08-06T03:56:35;99800;;;
74485;BMP280;62942;52.462;10.846;2023-08-06T03:57:35;99800;;;
74485;BMP280;62942;52.462;10.846;2023-08-06T03:58:45;99800;;;
74485;BMP280;62942;52.462;10.846;2023-08-06T03:59:55;99790;;;
74485;BMP280;62942;52.462;10.846;2023-08-06T04:01:05;99790;;;
74485;BMP280;62942;52.462;10.846;2023-08-06T04:02:15;99790;;;
74485;BMP280;62942;52.462;10.846;2023-08-06T04:03:25;99800;;;
74485;BMP280;62942;52.462;10.846;2023-08-06T04:04:35;99790;;;
74485;BMP280;62942;52.462;10.846;2023-08-06T04:05:45;99790;;;
74485;BMP280;62942;52.462;10.846;2023-08-06T04:06:45;99800;;;
74485;BMP280;62942;52.462;10.846;2023-08-06T04:07:55;99800;;;
74485;BMP280;62942;52.462;10.846;2023-08-06T04:09:05;99800;;;
74485;BMP280;62942;52.462;10.846;2023-08-06T04:10:15;99790;;;
74485;BMP280;62942;52.462;10.846;2023-08-06T04:11:15;99790;;;
74485;BMP280;62942;52.462;10.846;2023-08-06T04:12:15;99790;;;
74485;BMP280;62942;52.462;10.846;2023-08-06T04:13:25;99800;;;
74485;BMP280;62942;52.462;10.846;2023-08-06T04:14:35;99790;;;
74485;BMP280;62942;52.462;10.846;2023-08-06T04:15:35;99790;;;
74485;BMP280;62942;52.462;10.846;2023-08-06T04:16:35;99790;;;
74485;BMP280;62942;52.462;10.846;2023-08-06T04:17:45;99800;;;
74485;BMP280;62942;52.462;10.846;2023-08-06T04:18:45;99790;;;
74485;BMP280;62942;52.462;10.846;2023-08-06T04:19:46;99800;;;
74485;BMP280;62942;52.462;10.846;2023-08-06T04:20:45;99790;;;
74485;BMP280;62942;52.462;10.846;2023-08-06T04:21:55;99790;;;
74485;BMP280;62942;52.462;10.846;2023-08-06T04:23:05;99790;;;
74485;BMP280;62942;52.462;10.846;2023-08-06T04:24:15;99800;;;
74485;BMP280;62942;52.462;10.846;2023-08-06T04:25:25;99790;;;
74485;BMP280;62942;52.462;10.846;2023-08-06T04:26:25;99800;;;
74485;BMP280;62942;52.462;10.846;2023-08-06T04:27:35;99790;;;
74485;BMP280;62942;52.462;10.846;2023-08-06T04:28:35;99780;;;
74485;BMP280;62942;52.462;10.846;2023-08-06T04:29:45;99790;;;
74485;BMP280;62942;52.462;10.846;2023-08-06T04:30:55;99790;;;
74485;BMP280;62942;52.462;10.846;2023-08-06T04:31:55;99790;;;
74485;BMP280;62942;52.462;10.846;2023-08-06T04:33:05;99780;;;
74485;BMP280;62942;52.462;10.846;2023-08-06T04:34:15;99780;;;
74485;BMP280;62942;52.462;10.846;2023-08-06T04:35:25;99780;;;
74485;BMP280;62942;52.462;10.846;2023-08-06T04:36:35;99780;;;
74485;BMP280;62942;52.462;10.846;2023-08-06T04:37:35;99790;;;
74485;BMP280;62942;52.462;10.846;2023-08-06T04:38:45;99790;;;
74485;BMP280;62942;52.462;10.846;2023-08-06T04:39:55;99770;;;
74485;BMP280;62942;52.462;10.846;2023-08-06T04:41:05;99790;;;
74485;BMP280;62942;52.462;10.846;2023-08-06T04:42:15;99790;;;
74485;BMP280;62942;52.462;10.846;2023-08-06T04:43:25;99790;;;
74485;BMP280;62942;52.462;10.846;2023-08-06T04:44:35;99790;;;
74485;BMP280;62942;52.462;10.846;2023-08-06T04:45:35;99790;;;
74485;BMP280;62942;52.462;10.846;2023-08-06T04:46:35;99790;;;
74485;BMP280;62942;52.462;10.846;2023-08-06T04:47:45;99790;;;
74485;BMP280;62942;52.462;10.846;2023-08-06T04:48:45;99790;;;
74485;BMP280;62942;52.462;10.846;2023-08-06T04:49:45;99780;;;
74485;BMP280;62942;52.462;10.846;2023-08-06T04:50:55;99780;;;
74485;BMP280;62942;52.462;10.846;2023-08-06T04:51:55;99780;;;
74485;BMP280;62942;52.462;10.846;2023-08-06T04:53:05;99780;;;
74485;BMP280;62942;52.462;10.846;2023-08-06T04:54:05;99770;;;
74485;BMP280;62942;52.462;10.846;2023-08-06T04:55:15;99780;;;
74485;BMP280;62942;52.462;10.846;2023-08-06T04:56:15;99780;;;
74485;BMP280;62942;52.462;10.846;2023-08-06T04:57:25;99780;;;
74485;BMP280;62942;52.462;10.846;2023-08-06T04:58:35;99780;;;
74485;BMP280;62942;52.462;10.846;2023-08-06T04:59:45;99780;;;
74485;BMP280;62942;52.462;10.846;2023-08-06T05:00:55;99780;;;
74485;BMP280;62942;52.462;10.846;2023-08-06T05:02:05;99790;;;
74485;BMP280;62942;52.462;10.846;2023-08-06T05:03:15;99780;;;
74485;BMP280;62942;52.462;10.846;2023-08-06T05:04:25;99790;;;
74485;BMP280;62942;52.462;10.846;2023-08-06T05:05:25;99790;;;
74485;BMP280;62942;52.462;10.846;2023-08-06T05:06:35;99780;;;
74485;BMP280;62942;52.462;10.846;2023-08-06T05:07:35;99780;;;
74485;BMP280;62942;52.462;10.846;2023-08-06T05:08:35;99780;;;
74485;BMP280;62942;52.462;10.846;2023-08-06T05:09:45;99780;;;
74485;BMP280;62942;52.462;10.846;2023-08-06T05:10:55;99780;;;
74485;BMP280;62942;52.462;10.846;2023-08-06T05:11:55;99780;;;
74485;BMP280;62942;52.462;10.846;2023-08-06T05:13:05;99780;;;
74485;BMP280;62942;52.462;10.846;2023-08-06T05:14:15;99770;;;
74485;BMP280;62942;52.462;10.846;2023-08-06T05:15:15;99770;;;
74485;BMP280;62942;52.462;10.846;2023-08-06T05:16:25;99770;;;
74485;BMP280;62942;52.462;10.846;2023-08-06T05:17:35;99770;;;
74485;BMP280;62942;52.462;10.846;2023-08-06T05:18:35;99770;;;
74485;BMP280;62942;52.462;10.846;2023-08-06T05:19:45;99770;;;
74485;BMP280;62942;52.462;10.846;2023-08-06T05:20:45;99770;;;
74485;BMP280;62942;52.462;10.846;2023-08-06T05:21:45;99770;;;
74485;BMP280;62942;52.462;10.846;2023-08-06T05:22:45;99770;;;
74485;BMP280;62942;52.462;10.846;2023-08-06T05:23:55;99770;;;
74485;BMP280;62942;52.462;10.846;2023-08-06T05:25:05;99760;;;
74485;BMP280;62942;52.462;10.846;2023-08-06T05:26:15;99770;;;
74485;BMP280;62942;52.462;10.846;2023-08-06T05:27:25;99760;;;
74485;BMP280;62942;52.462;10.846;2023-08-06T05:28:25;99760;;;
74485;BMP280;62942;52.462;10.846;2023-08-06T05:29:25;99770;;;
74485;BMP280;62942;52.462;10.846;2023-08-06T05:30:25;99760;;;
74485;BMP280;62942;52.462;10.846;2023-08-06T05:31:35;99760;;;
74485;BMP280;62942;52.462;10.846;2023-08-06T05:32:45;99760;;;
74485;BMP280;62942;52.462;10.846;2023-08-06T05:33:55;99760;;;
74485;BMP280;62942;52.462;10.846;2023-08-06T05:35:05;99760;;;
74485;BMP280;62942;52.462;10.846;2023-08-06T05:36:15;99770;;;
74485;BMP280;62942;52.462;10.846;2023-08-06T05:37:15;99770;;;
74485;BMP280;62942;52.462;10.846;2023-08-06T05:38:16;99770;;;
74485;BMP280;62942;52.462;10.846;2023-08-06T05:39:25;99770;;;
74485;BMP280;62942;52.462;10.846;2023-08-06T05:40:25;99770;;;
74485;BMP280;62942;52.462;10.846;2023-08-06T05:41:35;99770;;;
74485;BMP280;62942;52.462;10.846;2023-08-06T05:42:45;99770;;;
74485;BMP280;62942;52.462;10.846;2023-08-06T05:43:45;99780;;;
74485;BMP280;62942;52.462;10.846;2023-08-06T05:44:55;99770;;;
74485;BMP280;62942;52.462;10.846;2023-08-06T05:46:05;99770;;;
74485;BMP280;62942;52.462;10.846;2023-08-06T05:47:15;99780;;;
74485;BMP280;62942;52.462;10.846;2023-08-06T05:48:15;99770;;;
74485;BMP280;62942;52.462;10.846;2023-08-06T05:49:25;99770;;;
74485;BMP280;62942;52.462;10.846;2023-08-06T05:50:35;99770;;;
74485;BMP280;62942;52.462;10.846;2023-08-06T05:51:35;99770;;;
74485;BMP280;62942;52.462;10.846;2023-08-06T05:52:45;99770;;;
74485;BMP280;62942;52.462;10.846;2023-08-06T05:53:45;99770;;;
74485;BMP280;62942;52.462;10.846;2023-08-06T05:54:55;99770;;;
74485;BMP280;62942;52.462;10.846;2023-08-06T05:55:55;99770;;;
74485;BMP280;62942;52.462;10.846;2023-08-06T05:57:05;99770;;;
74485;BMP280;62942;52.462;10.846;2023-08-06T05:58:15;99770;;;
74485;BMP280;62942;52.462;10.846;2023-08-06T05:59:15;99760;;;
74485;BMP280;62942;52.462;10.846;2023-08-06T06:00:15;99770;;;
74485;BMP280;62942;52.462;10.846;2023-08-06T06:01:15;99770;;;
74485;BMP280;62942;52.462;10.846;2023-08-06T06:02:25;99760;;;
74485;BMP280;62942;52.462;10.846;2023-08-06T06:03:35;99760;;;
74485;BMP280;62942;52.462;10.846;2023-08-06T06:04:45;99760;;;
74485;BMP280;62942;52.462;10.846;2023-08-06T06:05:55;99760;;;
74485;BMP280;62942;52.462;10.846;2023-08-06T06:07:05;99750;;;
74485;BMP280;62942;52.462;10.846;2023-08-06T06:08:15;99760;;;
74485;BMP280;62942;52.462;10.846;2023-08-06T06:09:15;99750;;;
74485;BMP280;62942;52.462;10.846;2023-08-06T06:10:25;99750;;;
74485;BMP280;62942;52.462;10.846;2023-08-06T06:11:25;99750;;;
74485;BMP280;62942;52.462;10.846;2023-08-06T06:12:35;99750;;;
74485;BMP280;62942;52.462;10.846;2023-08-06T06:13:35;99750;;;
74485;BMP280;62942;52.462;10.846;2023-08-06T06:14:45;99760;;;
74485;BMP280;62942;52.462;10.846;2023-08-06T06:15:46;99750;;;
74485;BMP280;62942;52.462;10.846;2023-08-06T06:16:55;99750;;;
74485;BMP280;62942;52.462;10.846;2023-08-06T06:17:55;99750;;;
74485;BMP280;62942;52.462;10.846;2023-08-06T06:19:05;99760;;;
74485;BMP280;62942;52.462;10.846;2023-08-06T06:20:15;99760;;;
74485;BMP280;62942;52.462;10.846;2023-08-06T06:21:25;99760;;;
74485;BMP280;62942;52.462;10.846;2023-08-06T06:22:35;99760;;;
74485;BMP280;62942;52.462;10.846;2023-08-06T06:23:35;99750;;;
74485;BMP280;62942;52.462;10.846;2023-08-06T06:24:45;99750;;;
74485;BMP280;62942;52.462;10.846;2023-08-06T06:25:55;99750;;;
74485;BMP280;62942;52.462;10.846;2023-08-06T06:27:05;99750;;;
74485;BMP280;62942;52.462;10.846;2023-08-06T06:28:15;99750;;;
74485;BMP280;62942;52.462;10.846;2023-08-06T06:29:25;99750;;;
74485;BMP280;62942;52.462;10.846;2023-08-06T06:30:25;99750;;;
74485;BMP280;62942;52.462;10.846;2023-08-06T06:31:35;99750;;;
74485;BMP280;62942;52.462;10.846;2023-08-06T06:32:45;99750;;;
74485;BMP280;62942;52.462;10.846;2023-08-06T06:33:45;99750;;;
74485;BMP280;62942;52.462;10.846;2023-08-06T06:34:55;99750;;;
74485;BMP280;62942;52.462;10.846;2023-08-06T06:36:05;99740;;;
74485;BMP280;62942;52.462;10.846;2023-08-06T06:37:15;99740;;;
74485;BMP280;62942;52.462;10.846;2023-08-06T06:38:25;99740;;;
74485;BMP280;62942;52.462;10.846;2023-08-06T06:39:25;99740;;;
74485;BMP280;62942;52.462;10.846;2023-08-06T06:40:25;99740;;;
74485;BMP280;62942;52.462;10.846;2023-08-06T06:41:35;99740;;;
74485;BMP280;62942;52.462;10.846;2023-08-06T06:42:35;99740;;;
74485;BMP280;62942;52.462;10.846;2023-08-06T06:43:45;99740;;;
74485;BMP280;62942;52.462;10.846;2023-08-06T06:44:45;99740;;;
74485;BMP280;62942;52.462;10.846;2023-08-06T06:45:55;99740;;;
74485;BMP280;62942;52.462;10.846;2023-08-06T06:46:55;99740;;;
74485;BMP280;62942;52.462;10.846;2023-08-06T06:47:55;99740;;;
74485;BMP280;62942;52.462;10.846;2023-08-06T06:49:05;99730;;;
74485;BMP280;62942;52.462;10.846;2023-08-06T06:50:05;99730;;;
74485;BMP280;62942;52.462;10.846;2023-08-06T06:51:05;99730;;;
74485;BMP280;62942;52.462;10.846;2023-08-06T06:52:05;99740;;;
74485;BMP280;62942;52.462;10.846;2023-08-06T06:53:15;99740;;;
74485;BMP280;62942;52.462;10.846;2023-08-06T06:54:15;99740;;;
74485;BMP280;62942;52.462;10.846;2023-08-06T06:55:25;99740;;;
74485;BMP280;62942;52.462;10.846;2023-08-06T06:56:25;99740;;;
74485;BMP280;62942;52.462;10.846;2023-08-06T06:57:25;99730;;;
74485;BMP280;62942;52.462;10.846;2023-08-06T06:58:35;99730;;;
74485;BMP280;62942;52.462;10.846;2023-08-06T06:59:45;99730;;;
74485;BMP280;62942;52.462;10.846;2023-08-06T07:00:45;99730;;;
74485;BMP280;62942;52.462;10.846;2023-08-06T07:01:55;99730;;;
74485;BMP280;62942;52.462;10.846;2023-08-06T07:03:05;99730;;;
74485;BMP280;62942;52.462;10.846;2023-08-06T07:04:15;99730;;;